createdAt,value
2018-06-08T00:01:43.592Z,87.40
2018-06-08T00:04:12.133Z,88.30
2018-06-08T00:06:40.479Z,89.10
2018-06-08T00:09:09.188Z,89.10
2018-06-08T00:11:37.585Z,89.50
2018-06-08T00:14:05.994Z,89.70
2018-06-08T00:16:34.365Z,90.10
2018-06-08T00:19:02.840Z,90.20
2018-06-08T00:21:31.216Z,90.40
2018-06-08T00:23:59.580Z,90.70
2018-06-08T00:26:28.026Z,91.00
2018-06-08T00:28:56.393Z,91.30
2018-06-08T00:31:24.782Z,91.70
2018-06-08T00:33:53.489Z,92.10
2018-06-08T00:36:21.841Z,92.50
2018-06-08T00:38:50.239Z,92.70
2018-06-08T00:41:18.628Z,93.00
2018-06-08T00:43:47.016Z,93.10
2018-06-08T00:46:15.410Z,93.30
2018-06-08T00:48:43.817Z,93.50
2018-06-08T00:51:12.185Z,93.70
2018-06-08T00:53:40.552Z,94.00
2018-06-08T00:56:22.112Z,94.40
2018-06-08T00:58:50.464Z,94.70
2018-06-08T01:03:46.983Z,95.10
2018-06-08T01:06:15.361Z,95.30
2018-06-08T01:08:43.904Z,95.50
2018-06-08T01:11:12.551Z,95.70
2018-06-08T01:13:41.016Z,95.70
2018-06-08T01:16:09.356Z,95.90
2018-06-08T01:18:37.796Z,96.00
2018-06-08T01:21:06.156Z,96.00
2018-06-08T01:23:34.525Z,96.10
2018-06-08T01:26:02.949Z,96.10
2018-06-08T01:28:31.344Z,96.50
2018-06-08T01:30:59.732Z,96.60
2018-06-08T01:33:28.148Z,97.00
2018-06-08T01:35:56.572Z,97.20
2018-06-08T01:38:24.926Z,97.40
2018-06-08T01:40:53.333Z,97.40
2018-06-08T01:43:21.731Z,97.50
2018-06-08T01:45:50.115Z,97.80
2018-06-08T01:48:18.479Z,98.10
2018-06-08T01:50:46.844Z,98.30
2018-06-08T01:53:15.221Z,98.50
2018-06-08T01:55:44.197Z,98.40
2018-06-08T01:58:12.561Z,98.50
2018-06-08T02:00:40.985Z,99.00
2018-06-08T02:03:09.457Z,99.00
2018-06-08T02:05:37.812Z,99.10
2018-06-08T02:08:06.190Z,99.30
2018-06-08T02:10:34.685Z,99.30
2018-06-08T02:13:03.070Z,99.30
2018-06-08T02:15:31.425Z,99.40
2018-06-08T02:18:00.041Z,99.50
2018-06-08T02:20:28.376Z,99.80
2018-06-08T02:22:56.760Z,99.90
2018-06-08T02:25:25.163Z,99.90
2018-06-08T02:27:53.516Z,99.90
2018-06-08T02:30:21.889Z,99.90
2018-06-08T02:32:50.477Z,99.90
2018-06-08T02:35:18.824Z,99.90
2018-06-08T02:37:47.185Z,99.90
2018-06-08T02:40:15.590Z,99.90
2018-06-08T02:42:44.573Z,99.90
2018-06-08T02:45:12.993Z,99.90
2018-06-08T02:47:41.566Z,99.90
2018-06-08T02:50:09.965Z,99.90
2018-06-08T02:52:38.346Z,99.90
2018-06-08T02:55:06.864Z,99.90
2018-06-08T02:57:35.248Z,99.90
2018-06-08T03:00:03.717Z,99.90
2018-06-08T03:02:32.313Z,99.90
2018-06-08T03:05:00.649Z,99.90
2018-06-08T03:07:29.041Z,99.90
2018-06-08T03:09:57.452Z,99.90
2018-06-08T03:12:25.856Z,99.90
2018-06-08T03:14:54.269Z,99.90
2018-06-08T03:17:22.700Z,99.90
2018-06-08T03:19:51.040Z,99.90
2018-06-08T03:22:19.444Z,99.90
2018-06-08T03:24:47.993Z,99.90
2018-06-08T03:27:16.344Z,99.90
2018-06-08T03:29:44.825Z,99.90
2018-06-08T03:32:13.356Z,99.90
2018-06-08T03:34:41.758Z,99.90
2018-06-08T03:37:10.125Z,99.90
2018-06-08T03:39:38.686Z,99.90
2018-06-08T03:42:07.091Z,99.90
2018-06-08T03:44:35.477Z,99.90
2018-06-08T03:47:03.965Z,99.90
2018-06-08T03:49:32.367Z,99.90
2018-06-08T03:52:00.817Z,99.90
2018-06-08T03:54:29.435Z,99.90
2018-06-08T03:56:57.829Z,99.90
2018-06-08T03:59:26.226Z,99.90
2018-06-08T04:01:54.913Z,99.90
2018-06-08T04:04:23.282Z,99.90
2018-06-08T04:06:51.713Z,99.90
2018-06-08T04:09:20.146Z,99.80
2018-06-08T04:11:48.542Z,98.60
2018-06-08T04:14:16.928Z,97.30
2018-06-08T04:16:45.365Z,95.70
2018-06-08T04:19:13.765Z,94.60
2018-06-08T04:21:42.153Z,93.60
2018-06-08T04:24:10.849Z,92.50
2018-06-08T04:26:39.246Z,91.30
2018-06-08T04:29:07.636Z,90.50
2018-06-08T04:31:36.422Z,90.10
2018-06-08T04:34:04.884Z,90.10
2018-06-08T04:36:33.293Z,90.80
2018-06-08T04:39:01.908Z,91.90
2018-06-08T04:41:30.268Z,90.70
2018-06-08T04:43:58.638Z,90.40
2018-06-08T04:46:27.070Z,90.60
2018-06-08T04:48:55.464Z,90.90
2018-06-08T04:51:23.865Z,89.50
2018-06-08T04:53:52.449Z,87.00
2018-06-08T04:56:20.861Z,86.00
2018-06-08T04:58:49.250Z,84.60
2018-06-08T05:01:17.694Z,83.40
2018-06-08T05:03:46.072Z,80.90
2018-06-08T05:06:15.437Z,78.80
2018-06-08T05:08:43.980Z,74.80
2018-06-08T05:11:12.619Z,72.20
2018-06-08T05:13:41.002Z,68.50
2018-06-08T05:16:09.892Z,66.60
2018-06-08T05:18:38.333Z,63.90
2018-06-08T05:21:06.777Z,62.10
2018-06-08T05:23:35.752Z,60.40
2018-06-08T05:26:04.169Z,58.90
2018-06-08T05:28:32.748Z,57.30
2018-06-08T05:31:01.205Z,56.50
2018-06-08T05:33:29.731Z,55.30
2018-06-08T05:35:58.152Z,54.20
2018-06-08T05:38:26.609Z,52.80
2018-06-08T05:40:55.042Z,51.40
2018-06-08T05:43:23.456Z,50.70
2018-06-08T05:45:51.896Z,48.90
2018-06-08T05:50:48.468Z,47.30
2018-06-08T05:53:17.109Z,46.50
2018-06-08T05:55:45.546Z,46.00
2018-06-08T05:58:14.251Z,46.10
2018-06-08T06:00:42.844Z,45.20
2018-06-08T06:03:11.305Z,45.50
2018-06-08T06:05:39.766Z,44.80
2018-06-08T06:08:08.378Z,44.70
2018-06-08T06:10:37.120Z,44.00
2018-06-08T06:13:05.561Z,43.40
2018-06-08T06:15:33.970Z,42.50
2018-06-08T06:18:02.408Z,42.00
2018-06-08T06:20:30.776Z,42.60
2018-06-08T06:22:59.340Z,41.80
2018-06-08T06:25:27.749Z,40.10
2018-06-08T06:27:56.132Z,40.40
2018-06-08T06:30:25.775Z,39.90
2018-06-08T06:32:54.161Z,39.60
2018-06-08T06:35:22.666Z,39.80
2018-06-08T06:37:51.225Z,38.80
2018-06-08T06:40:19.613Z,38.30
2018-06-08T06:42:47.977Z,39.20
2018-06-08T06:45:16.403Z,38.40
2018-06-08T06:47:45.690Z,38.00
2018-06-08T06:50:14.079Z,37.20
2018-06-08T06:52:42.666Z,37.10
2018-06-08T06:55:11.066Z,35.60
2018-06-08T06:57:39.485Z,35.00
2018-06-08T07:00:07.942Z,35.20
2018-06-08T07:02:36.306Z,35.00
2018-06-08T07:07:32.965Z,37.50
2018-06-08T07:10:01.393Z,36.90
2018-06-08T07:12:29.776Z,36.90
2018-06-08T07:14:58.198Z,36.20
2018-06-08T07:17:26.581Z,35.90
2018-06-08T07:19:55.004Z,36.50
2018-06-08T07:22:23.680Z,35.90
2018-06-08T07:24:52.154Z,38.40
2018-06-08T07:27:21.189Z,39.60
2018-06-08T07:29:49.796Z,38.10
2018-06-08T07:32:18.232Z,39.80
2018-06-08T07:34:46.612Z,40.50
2018-06-08T07:37:15.262Z,39.60
2018-06-08T07:39:43.641Z,42.00
2018-06-08T07:42:12.016Z,42.80
2018-06-08T07:44:40.454Z,44.00
2018-06-08T07:47:08.849Z,42.40
2018-06-08T07:49:37.209Z,43.60
2018-06-08T07:52:05.693Z,43.00
2018-06-08T07:54:34.088Z,41.90
2018-06-08T07:57:02.962Z,44.60
2018-06-08T07:59:31.894Z,42.20
2018-06-08T08:02:00.319Z,41.50
2018-06-08T08:04:28.735Z,41.60
2018-06-08T08:06:57.264Z,42.30
2018-06-08T08:09:25.629Z,43.50
2018-06-08T08:11:54.041Z,44.10
2018-06-08T08:14:22.493Z,45.90
2018-06-08T08:16:50.886Z,46.40
2018-06-08T08:19:19.319Z,45.60
2018-06-08T08:21:47.723Z,46.70
2018-06-08T08:24:16.365Z,46.40
2018-06-08T08:26:44.756Z,46.10
2018-06-08T08:29:13.326Z,46.90
2018-06-08T08:31:41.683Z,44.00
2018-06-08T08:34:10.094Z,41.80
2018-06-08T08:36:38.685Z,42.30
2018-06-08T08:39:08.483Z,43.20
2018-06-08T08:41:37.056Z,43.70
2018-06-08T08:46:34.174Z,45.50
2018-06-08T08:49:02.556Z,45.40
2018-06-08T08:51:31.221Z,46.30
2018-06-08T08:53:59.560Z,45.40
2018-06-08T08:56:27.932Z,43.20
2018-06-08T08:58:56.645Z,43.00
2018-06-08T09:01:25.017Z,42.30
2018-06-08T09:03:53.420Z,43.70
2018-06-08T09:08:50.168Z,43.70
2018-06-08T09:11:18.602Z,44.60
2018-06-08T09:13:47.114Z,43.90
2018-06-08T09:16:16.411Z,44.30
2018-06-08T09:18:44.762Z,42.40
2018-06-08T09:21:13.316Z,43.30
2018-06-08T09:23:41.914Z,43.20
2018-06-08T09:26:10.256Z,44.50
2018-06-08T09:28:38.986Z,43.90
2018-06-08T09:31:07.376Z,43.80
2018-06-08T09:33:35.764Z,44.80
2018-06-08T09:36:04.212Z,45.00
2018-06-08T09:38:32.571Z,44.80
2018-06-08T09:41:01.009Z,45.90
2018-06-08T09:43:29.436Z,43.50
2018-06-08T09:45:57.841Z,43.90
2018-06-08T09:48:26.237Z,43.10
2018-06-08T09:50:54.808Z,45.00
2018-06-08T09:53:23.227Z,46.40
2018-06-08T09:55:52.122Z,45.50
2018-06-08T09:58:20.738Z,45.00
2018-06-08T10:00:49.139Z,45.00
2018-06-08T10:03:17.525Z,42.90
2018-06-08T10:05:45.985Z,44.00
2018-06-08T10:08:14.369Z,46.00
2018-06-08T10:10:42.821Z,44.10
2018-06-08T10:13:11.567Z,44.20
2018-06-08T10:15:39.971Z,44.90
2018-06-08T10:18:08.325Z,44.80
2018-06-08T10:20:36.875Z,44.50
2018-06-08T10:23:05.295Z,45.50
2018-06-08T10:25:33.693Z,45.30
2018-06-08T10:28:02.329Z,45.30
2018-06-08T10:30:30.773Z,44.20
2018-06-08T10:35:27.294Z,44.70
2018-06-08T10:37:55.710Z,44.20
2018-06-08T10:40:24.180Z,42.80
2018-06-08T10:42:52.763Z,43.50
2018-06-08T10:45:21.167Z,44.50
2018-06-08T10:47:49.532Z,43.80
2018-06-08T10:50:18.111Z,44.90
2018-06-08T10:52:47.495Z,45.00
2018-06-08T10:55:15.892Z,43.90
2018-06-08T10:57:44.304Z,44.80
2018-06-08T11:00:12.660Z,40.80
2018-06-08T11:02:41.012Z,43.00
2018-06-08T11:05:09.573Z,41.80
2018-06-08T11:07:37.979Z,41.20
2018-06-08T11:10:06.424Z,40.70
2018-06-08T11:12:34.996Z,41.50
2018-06-08T11:15:03.455Z,40.10
2018-06-08T11:17:31.881Z,40.80
2018-06-08T11:20:00.310Z,41.70
2018-06-08T11:22:28.800Z,40.00
2018-06-08T11:24:57.239Z,40.70
2018-06-08T11:27:25.675Z,40.40
2018-06-08T11:29:54.055Z,41.50
2018-06-08T11:32:22.434Z,43.20
2018-06-08T11:34:51.134Z,43.10
2018-06-08T11:37:19.581Z,42.50
2018-06-08T11:39:48.009Z,41.80
2018-06-08T11:42:16.767Z,42.10
2018-06-08T11:44:45.913Z,41.00
2018-06-08T11:47:14.824Z,40.80
2018-06-08T11:49:43.422Z,39.30
2018-06-08T11:52:11.774Z,41.70
2018-06-08T11:54:40.140Z,41.90
2018-06-08T11:57:08.735Z,40.30
2018-06-08T11:59:37.128Z,41.00
2018-06-08T12:02:05.751Z,42.90
2018-06-08T12:04:34.165Z,42.40
2018-06-08T12:07:02.596Z,40.50
2018-06-08T12:09:31.093Z,41.60
2018-06-08T12:11:59.758Z,41.00
2018-06-08T12:14:28.188Z,42.60
2018-06-08T12:16:56.649Z,41.80
2018-06-08T12:19:25.200Z,40.10
2018-06-08T12:24:21.773Z,42.40
2018-06-08T12:26:50.324Z,42.20
2018-06-08T12:29:18.703Z,41.70
2018-06-08T12:31:47.100Z,41.30
2018-06-08T12:34:15.784Z,42.30
2018-06-08T12:36:44.161Z,43.00
2018-06-08T12:39:13.464Z,42.20
2018-06-08T12:41:42.001Z,42.50
2018-06-08T12:44:10.768Z,42.80
2018-06-08T12:46:39.172Z,42.30
2018-06-08T12:49:07.572Z,42.80
2018-06-08T12:51:36.061Z,43.20
2018-06-08T12:54:04.521Z,42.10
2018-06-08T12:56:33.378Z,41.30
2018-06-08T12:59:01.893Z,40.90
2018-06-08T13:01:30.244Z,42.00
2018-06-08T13:03:58.804Z,40.10
2018-06-08T13:06:27.696Z,41.90
2018-06-08T13:08:56.959Z,41.70
2018-06-08T13:11:25.410Z,43.00
2018-06-08T13:13:53.858Z,42.90
2018-06-08T13:16:22.245Z,43.50
2018-06-08T13:18:50.654Z,42.00
2018-06-08T13:21:19.023Z,41.50
2018-06-08T13:23:48.385Z,42.80
2018-06-08T13:28:45.095Z,43.60
2018-06-08T13:31:13.572Z,42.70
2018-06-08T13:33:42.280Z,42.70
2018-06-08T13:36:10.674Z,43.80
2018-06-08T13:38:39.072Z,40.90
2018-06-08T13:41:07.601Z,40.90
2018-06-08T13:43:35.952Z,40.00
2018-06-08T13:46:12.763Z,39.70
2018-06-08T13:48:41.121Z,39.50
2018-06-08T13:51:09.500Z,38.80
2018-06-08T13:53:37.916Z,38.80
2018-06-08T13:56:06.269Z,39.10
2018-06-08T13:58:34.698Z,40.50
2018-06-08T14:01:03.078Z,38.30
2018-06-08T14:03:31.469Z,37.20
2018-06-08T14:05:59.869Z,39.00
2018-06-08T14:08:28.311Z,35.50
2018-06-08T14:10:56.690Z,35.30
2018-06-08T14:13:25.243Z,38.20
2018-06-08T14:15:53.862Z,37.40
2018-06-08T14:18:22.252Z,37.90
2018-06-08T14:20:50.622Z,37.40
2018-06-08T14:23:19.392Z,38.30
2018-06-08T14:25:48.773Z,38.20
2018-06-08T14:28:17.156Z,38.10
2018-06-08T14:30:45.585Z,38.50
2018-06-08T14:33:13.949Z,39.00
2018-06-08T14:35:42.433Z,40.10
2018-06-08T14:38:11.010Z,41.20
2018-06-08T14:40:39.404Z,42.00
2018-06-08T14:43:08.611Z,40.90
2018-06-08T14:45:37.207Z,40.30
2018-06-08T14:48:05.683Z,40.20
2018-06-08T14:50:34.088Z,41.40
2018-06-08T14:53:02.769Z,41.80
2018-06-08T14:55:31.280Z,42.20
2018-06-08T14:57:59.744Z,41.50
2018-06-08T15:00:28.233Z,41.70
2018-06-08T15:02:57.897Z,43.00
2018-06-08T15:05:27.227Z,45.00
2018-06-08T15:07:55.892Z,44.10
2018-06-08T15:10:24.267Z,43.80
2018-06-08T15:12:52.657Z,46.10
2018-06-08T15:15:21.220Z,46.20
2018-06-08T15:17:49.613Z,46.80
2018-06-08T15:20:18.957Z,47.20
2018-06-08T15:22:47.575Z,46.30
2018-06-08T15:25:16.017Z,46.90
2018-06-08T15:27:44.433Z,47.60
2018-06-08T15:30:13.141Z,46.90
2018-06-08T15:32:41.572Z,47.60
2018-06-08T15:35:09.945Z,48.00
2018-06-08T15:37:38.489Z,48.30
2018-06-08T15:40:06.857Z,48.30
2018-06-08T15:42:35.234Z,47.60
2018-06-08T15:45:03.722Z,48.30
2018-06-08T15:47:32.147Z,48.30
2018-06-08T15:50:00.550Z,48.20
2018-06-08T15:52:28.937Z,48.60
2018-06-08T15:54:57.330Z,48.70
2018-06-08T15:57:25.708Z,48.80
2018-06-08T15:59:54.112Z,48.80
2018-06-08T16:02:22.502Z,49.00
2018-06-08T16:04:50.968Z,49.60
2018-06-08T16:07:20.053Z,48.90
2018-06-08T16:09:48.521Z,49.00
2018-06-08T16:12:16.913Z,48.80
2018-06-08T16:14:45.512Z,49.60
2018-06-08T16:17:13.986Z,49.80
2018-06-08T16:19:42.396Z,49.50
2018-06-08T16:22:10.837Z,49.30
2018-06-08T16:24:39.185Z,50.20
2018-06-08T16:27:07.561Z,49.70
2018-06-08T16:29:35.976Z,50.30
2018-06-08T16:32:04.416Z,50.70
2018-06-08T16:34:32.777Z,51.10
2018-06-08T16:37:01.329Z,51.10
2018-06-08T16:39:29.732Z,51.20
2018-06-08T16:41:58.118Z,51.10
2018-06-08T16:44:26.556Z,51.40
2018-06-08T16:46:54.972Z,51.40
2018-06-08T16:49:23.391Z,51.70
2018-06-08T16:51:51.830Z,51.40
2018-06-08T16:54:20.423Z,51.50
2018-06-08T16:56:48.838Z,51.90
2018-06-08T16:59:17.301Z,51.40
2018-06-08T17:01:45.741Z,51.70
2018-06-08T17:04:14.134Z,52.20
2018-06-08T17:06:42.727Z,52.60
2018-06-08T17:09:11.188Z,52.70
2018-06-08T17:11:39.574Z,53.10
2018-06-08T17:14:08.232Z,53.60
2018-06-08T17:16:36.637Z,53.90
2018-06-08T17:19:05.032Z,53.90
2018-06-08T17:21:33.601Z,54.10
2018-06-08T17:24:02.008Z,53.60
2018-06-08T17:26:30.432Z,53.40
2018-06-08T17:31:27.067Z,52.90
2018-06-08T17:33:55.477Z,53.00
2018-06-08T17:36:24.028Z,53.10
2018-06-08T17:38:52.437Z,53.30
2018-06-08T17:41:20.916Z,52.60
2018-06-08T17:43:49.336Z,53.00
2018-06-08T17:46:17.805Z,53.10
2018-06-08T17:48:46.199Z,53.50
2018-06-08T17:51:14.705Z,53.90
2018-06-08T17:53:43.178Z,54.10
2018-06-08T17:56:11.884Z,54.40
2018-06-08T17:58:40.353Z,54.10
2018-06-08T18:01:08.708Z,54.30
2018-06-08T18:03:37.072Z,54.70
2018-06-08T18:06:05.693Z,54.90
2018-06-08T18:08:34.100Z,55.30
2018-06-08T18:11:02.545Z,55.40
2018-06-08T18:13:30.964Z,55.30
2018-06-08T18:15:59.380Z,55.60
2018-06-08T18:18:27.741Z,55.90
2018-06-08T18:20:56.421Z,57.10
2018-06-08T18:23:24.986Z,56.70
2018-06-08T18:25:53.476Z,57.60
2018-06-08T18:28:22.073Z,56.60
2018-06-08T18:30:51.290Z,57.50
2018-06-08T18:33:19.701Z,57.90
2018-06-08T18:35:48.144Z,57.30
2018-06-08T18:38:16.543Z,58.00
2018-06-08T18:40:44.948Z,58.50
2018-06-08T18:43:13.441Z,58.50
2018-06-08T18:45:41.941Z,58.60
2018-06-08T18:48:10.324Z,59.00
2018-06-08T18:50:38.765Z,59.20
2018-06-08T18:53:07.255Z,59.20
2018-06-08T18:55:35.648Z,59.30
2018-06-08T18:58:04.164Z,59.60
2018-06-08T19:00:32.552Z,59.00
2018-06-08T19:03:00.990Z,59.40
2018-06-08T19:05:29.649Z,59.70
2018-06-08T19:07:58.166Z,60.20
2018-06-08T19:10:26.570Z,60.80
2018-06-08T19:12:55.029Z,60.80
2018-06-08T19:15:23.484Z,60.90
2018-06-08T19:17:52.050Z,61.40
2018-06-08T19:20:21.465Z,61.70
2018-06-08T19:22:49.881Z,62.30
2018-06-08T19:25:18.281Z,62.80
2018-06-08T19:27:46.776Z,63.90
2018-06-08T19:30:15.210Z,63.90
2018-06-08T19:32:43.622Z,64.80
2018-06-08T19:35:12.113Z,65.60
2018-06-08T19:37:40.504Z,66.00
2018-06-08T19:40:08.896Z,67.00
2018-06-08T19:42:37.426Z,67.70
2018-06-08T19:45:06.177Z,68.20
2018-06-08T19:47:34.564Z,68.40
2018-06-08T19:50:03.192Z,69.40
2018-06-08T19:52:31.586Z,70.00
2018-06-08T19:55:00.008Z,70.90
2018-06-08T19:57:28.505Z,72.10
2018-06-08T19:59:56.982Z,72.40
2018-06-08T20:02:25.496Z,73.50
2018-06-08T20:04:53.933Z,74.10
2018-06-08T20:07:22.337Z,75.10
2018-06-08T20:09:51.621Z,76.40
2018-06-08T20:12:20.298Z,77.00
2018-06-08T20:14:48.679Z,77.50
2018-06-08T20:17:17.070Z,78.50
2018-06-08T20:19:45.622Z,79.00
2018-06-08T20:22:14.010Z,79.10
2018-06-08T20:24:42.870Z,79.70
2018-06-08T20:29:39.489Z,80.60
2018-06-08T20:32:08.038Z,80.30
2018-06-08T20:34:36.492Z,81.00
2018-06-08T20:37:04.877Z,82.50
2018-06-08T20:39:33.380Z,82.90
2018-06-08T20:42:01.829Z,83.90
2018-06-08T20:44:30.300Z,84.10
2018-06-08T20:46:58.726Z,85.10
2018-06-08T20:49:27.203Z,85.70
2018-06-08T20:51:55.612Z,86.70
2018-06-08T20:54:24.074Z,87.20
2018-06-08T20:57:03.951Z,88.20
2018-06-08T20:59:32.496Z,88.20
2018-06-08T21:02:01.436Z,88.50
2018-06-08T21:04:30.233Z,89.20
2018-06-08T21:06:59.133Z,89.30
2018-06-08T21:09:27.519Z,89.50
2018-06-08T21:14:24.109Z,90.70
2018-06-08T21:16:52.512Z,90.40
2018-06-08T21:21:50.047Z,90.80
2018-06-08T21:24:18.488Z,91.20
2018-06-08T21:26:46.885Z,91.50
2018-06-08T21:29:15.401Z,91.60
2018-06-08T21:31:43.848Z,91.70
2018-06-08T21:34:12.321Z,91.80
2018-06-08T21:36:40.701Z,92.20
2018-06-08T21:39:09.129Z,92.30
2018-06-08T21:41:37.610Z,92.70
2018-06-08T21:44:06.009Z,92.40
2018-06-08T21:46:34.397Z,92.20
2018-06-08T21:49:02.869Z,92.10
2018-06-08T21:51:31.524Z,92.50
2018-06-08T21:53:59.910Z,92.80
2018-06-08T21:56:28.364Z,93.00
2018-06-08T21:58:56.894Z,93.30
2018-06-08T22:01:25.391Z,93.50
2018-06-08T22:03:53.940Z,93.70
2018-06-08T22:06:22.381Z,93.70
2018-06-08T22:08:50.815Z,94.00
2018-06-08T22:11:19.293Z,93.90
2018-06-08T22:13:47.816Z,94.00
2018-06-08T22:16:16.295Z,93.90
2018-06-08T22:18:44.765Z,94.30
2018-06-08T22:21:13.183Z,94.50
2018-06-08T22:23:41.630Z,94.50
2018-06-08T22:26:10.117Z,94.60
2018-06-08T22:28:38.525Z,94.70
2018-06-08T22:31:07.004Z,94.90
2018-06-08T22:33:35.515Z,95.20
2018-06-08T22:36:04.021Z,95.60
2018-06-08T22:38:32.584Z,95.70
2018-06-08T22:41:01.099Z,95.80
2018-06-08T22:43:29.610Z,95.90
2018-06-08T22:45:58.166Z,96.20
2018-06-08T22:48:26.615Z,96.40
2018-06-08T22:50:55.107Z,96.40
2018-06-08T22:53:23.684Z,96.30
2018-06-08T22:55:52.400Z,96.60
2018-06-08T22:58:20.880Z,96.70
2018-06-08T23:00:49.573Z,96.90
2018-06-08T23:03:18.080Z,97.10
2018-06-08T23:05:46.476Z,97.20
2018-06-08T23:08:15.045Z,97.30
2018-06-08T23:10:43.490Z,97.60
2018-06-08T23:13:11.924Z,97.70
2018-06-08T23:15:40.450Z,98.20
2018-06-08T23:18:08.858Z,98.50
2018-06-08T23:20:37.239Z,98.70
2018-06-08T23:23:05.930Z,98.70
2018-06-08T23:25:34.323Z,98.70
2018-06-08T23:28:02.723Z,98.80
2018-06-08T23:30:31.401Z,99.00
2018-06-08T23:32:59.841Z,98.90
2018-06-08T23:37:56.390Z,99.40
2018-06-08T23:40:24.842Z,99.50
2018-06-08T23:42:53.259Z,99.80
2018-06-08T23:45:22.649Z,99.90
2018-06-08T23:47:51.036Z,99.90
2018-06-08T23:50:19.422Z,99.90
2018-06-08T23:52:47.827Z,99.90
2018-06-08T23:55:16.244Z,99.90
2018-06-08T23:57:44.669Z,99.90
